createdAt,value
2022-10-05T00:01:31.333Z,2.00
2022-10-05T00:04:15.675Z,2.00
2022-10-05T00:07:04.278Z,2.13
2022-10-05T00:09:34.072Z,2.30
2022-10-05T00:12:18.358Z,2.55
2022-10-05T00:14:48.409Z,2.15
2022-10-05T00:17:22.333Z,2.15
2022-10-05T00:19:54.055Z,2.28
2022-10-05T00:22:32.662Z,2.22
2022-10-05T00:25:03.070Z,2.60
2022-10-05T00:30:20.205Z,2.97
2022-10-05T00:32:49.766Z,2.80
2022-10-05T00:35:18.531Z,2.33
2022-10-05T00:37:47.457Z,3.13
2022-10-05T00:40:32.777Z,2.60
2022-10-05T00:43:25.314Z,2.78
2022-10-05T00:46:07.881Z,2.70
2022-10-05T00:48:47.515Z,2.60
2022-10-05T00:51:25.616Z,2.55
2022-10-05T00:54:00.583Z,2.30
2022-10-05T00:56:57.828Z,2.30
2022-10-05T00:59:41.699Z,2.20
2022-10-05T01:02:36.921Z,2.38
2022-10-05T01:05:28.421Z,2.05
2022-10-05T01:08:08.509Z,2.30
2022-10-05T01:10:47.899Z,2.50
2022-10-05T01:13:52.063Z,1.90
2022-10-05T01:16:42.852Z,2.25
2022-10-05T01:19:13.042Z,2.50
2022-10-05T01:22:11.901Z,2.40
2022-10-05T01:25:12.435Z,2.30
2022-10-05T01:27:54.509Z,3.67
2022-10-05T01:30:23.475Z,2.35
2022-10-05T01:33:19.455Z,2.30
2022-10-05T01:36:11.077Z,2.30
2022-10-05T01:39:08.980Z,2.65
2022-10-05T01:41:39.369Z,1.90
2022-10-05T01:44:12.625Z,2.40
2022-10-05T01:47:03.413Z,2.35
2022-10-05T01:49:48.614Z,2.40
2022-10-05T01:52:28.739Z,2.25
2022-10-05T01:55:19.428Z,2.47
2022-10-05T01:57:58.787Z,2.60
2022-10-05T02:00:26.914Z,2.63
2022-10-05T02:03:03.173Z,2.67
2022-10-05T02:05:48.419Z,2.88
2022-10-05T02:08:26.147Z,2.60
2022-10-05T02:11:07.532Z,3.00
2022-10-05T02:14:10.721Z,2.45
2022-10-05T02:16:47.408Z,2.90
2022-10-05T02:19:21.163Z,2.42
2022-10-05T02:22:12.309Z,2.53
2022-10-05T02:24:47.796Z,2.40
2022-10-05T02:27:22.059Z,2.17
2022-10-05T02:29:53.184Z,2.55
2022-10-05T02:34:50.487Z,2.65
2022-10-05T02:38:00.153Z,2.70
2022-10-05T02:40:57.338Z,2.50
2022-10-05T02:43:43.077Z,2.40
2022-10-05T02:46:17.142Z,3.10
2022-10-05T02:49:05.010Z,2.70
2022-10-05T02:51:58.344Z,3.20
2022-10-05T02:54:47.352Z,2.95
2022-10-05T02:57:34.099Z,2.80
2022-10-05T03:00:16.579Z,2.03
2022-10-05T03:03:17.687Z,2.33
2022-10-05T03:05:55.153Z,2.83
2022-10-05T03:08:34.783Z,2.42
2022-10-05T03:11:23.036Z,2.47
2022-10-05T03:14:13.720Z,2.67
2022-10-05T03:16:57.100Z,2.28
2022-10-05T03:19:30.642Z,2.80
2022-10-05T03:22:22.438Z,2.85
2022-10-05T03:25:08.326Z,2.60
2022-10-05T03:27:50.353Z,2.58
2022-10-05T03:30:22.046Z,3.08
2022-10-05T03:33:01.691Z,2.40
2022-10-05T03:35:43.211Z,2.17
2022-10-05T03:38:28.480Z,2.15
2022-10-05T03:41:08.862Z,2.55
2022-10-05T03:43:55.105Z,2.42
2022-10-05T03:46:37.843Z,2.50
2022-10-05T03:49:38.774Z,2.92
2022-10-05T03:52:10.627Z,2.63
2022-10-05T03:55:04.306Z,2.60
2022-10-05T03:57:38.503Z,2.50
2022-10-05T04:00:14.410Z,2.95
2022-10-05T04:03:05.200Z,2.30
2022-10-05T04:05:39.944Z,2.38
2022-10-05T04:08:13.314Z,2.97
2022-10-05T04:10:51.009Z,2.40
2022-10-05T04:13:43.197Z,2.42
2022-10-05T04:16:21.037Z,2.50
2022-10-05T04:18:57.544Z,2.47
2022-10-05T04:21:37.076Z,2.60
2022-10-05T04:24:14.728Z,2.70
2022-10-05T04:27:02.940Z,2.92
2022-10-05T04:29:50.169Z,2.50
2022-10-05T04:32:36.015Z,2.75
2022-10-05T04:35:35.885Z,2.42
2022-10-05T04:38:29.199Z,2.47
2022-10-05T04:41:22.178Z,2.50
2022-10-05T04:44:28.911Z,2.35
2022-10-05T04:47:21.403Z,2.40
2022-10-05T04:50:13.324Z,2.55
2022-10-05T04:53:37.511Z,2.53
2022-10-05T04:56:17.283Z,2.72
2022-10-05T04:59:10.393Z,2.60
2022-10-05T05:02:00.064Z,2.17
2022-10-05T05:04:58.757Z,2.72
2022-10-05T05:07:48.320Z,2.45
2022-10-05T05:10:34.942Z,2.80
2022-10-05T05:13:24.205Z,3.10
2022-10-05T05:16:13.941Z,2.80
2022-10-05T05:18:41.548Z,2.80
2022-10-05T05:21:28.433Z,3.25
2022-10-05T05:24:30.299Z,2.80
2022-10-05T05:27:22.109Z,2.88
2022-10-05T05:30:13.293Z,3.05
2022-10-05T05:32:56.057Z,2.88
2022-10-05T05:35:46.895Z,2.28
2022-10-05T05:38:52.506Z,3.38
2022-10-05T05:41:30.408Z,3.40
2022-10-05T05:44:19.010Z,2.65
2022-10-05T05:47:20.428Z,2.72
2022-10-05T05:50:34.658Z,2.60
2022-10-05T05:53:17.644Z,2.88
2022-10-05T05:56:00.658Z,3.10
2022-10-05T05:58:35.796Z,2.97
2022-10-05T06:01:33.331Z,2.72
2022-10-05T06:04:22.838Z,2.58
2022-10-05T06:06:52.957Z,2.72
2022-10-05T06:09:27.173Z,3.20
2022-10-05T06:12:22.911Z,2.65
2022-10-05T06:14:59.502Z,3.17
2022-10-05T06:17:48.872Z,3.42
2022-10-05T06:20:30.670Z,2.63
2022-10-05T06:25:58.509Z,3.03
2022-10-05T06:28:28.193Z,3.17
2022-10-05T06:31:34.435Z,3.58
2022-10-05T06:34:46.887Z,3.03
2022-10-05T06:37:27.386Z,3.10
2022-10-05T06:40:15.605Z,3.38
2022-10-05T06:43:08.811Z,3.13
2022-10-05T06:46:21.054Z,2.80
2022-10-05T06:49:23.645Z,2.90
2022-10-05T06:52:46.584Z,3.10
2022-10-05T06:58:06.645Z,2.92
2022-10-05T07:01:16.189Z,3.30
2022-10-05T07:04:03.290Z,3.50
2022-10-05T07:06:58.659Z,2.95
2022-10-05T07:09:31.568Z,2.90
2022-10-05T07:12:36.798Z,3.35
2022-10-05T07:15:45.490Z,3.53
2022-10-05T07:18:51.498Z,3.88
2022-10-05T07:21:39.635Z,3.65
2022-10-05T07:24:29.699Z,3.80
2022-10-05T07:27:20.622Z,4.40
2022-10-05T07:30:10.076Z,5.45
2022-10-05T07:32:51.660Z,6.25
2022-10-05T07:36:07.858Z,5.15
2022-10-05T07:39:11.488Z,5.10
2022-10-05T07:41:46.150Z,6.35
2022-10-05T07:44:20.056Z,6.10
2022-10-05T07:46:54.369Z,6.13
2022-10-05T07:49:53.437Z,6.07
2022-10-05T07:52:35.019Z,5.60
2022-10-05T07:55:20.315Z,5.55
2022-10-05T07:57:53.811Z,5.55
2022-10-05T08:00:27.745Z,5.00
2022-10-05T08:03:06.619Z,5.68
2022-10-05T08:05:37.465Z,5.80
2022-10-05T08:08:37.143Z,5.20
2022-10-05T08:11:21.675Z,5.00
2022-10-05T08:13:56.084Z,4.07
2022-10-05T08:16:31.012Z,3.85
2022-10-05T08:19:37.386Z,3.97
2022-10-05T08:22:13.632Z,4.10
2022-10-05T08:24:49.639Z,3.20
2022-10-05T08:27:33.586Z,3.30
2022-10-05T08:30:14.644Z,3.33
2022-10-05T08:32:55.408Z,3.53
2022-10-05T08:35:37.876Z,3.70
2022-10-05T08:38:16.916Z,3.30
2022-10-05T08:41:08.228Z,2.75
2022-10-05T08:44:14.657Z,2.35
2022-10-05T08:47:09.407Z,2.70
2022-10-05T08:49:58.791Z,3.22
2022-10-05T08:52:29.879Z,2.88
2022-10-05T08:55:25.037Z,3.10
2022-10-05T08:58:10.687Z,2.60
2022-10-05T09:00:45.259Z,3.20
2022-10-05T09:03:21.964Z,3.05
2022-10-05T09:06:25.352Z,3.25
2022-10-05T09:09:08.120Z,3.15
2022-10-05T09:11:55.370Z,2.58
2022-10-05T09:14:40.151Z,2.58
2022-10-05T09:17:45.770Z,2.80
2022-10-05T09:20:25.040Z,3.05
2022-10-05T09:22:59.664Z,2.90
2022-10-05T09:25:32.821Z,2.90
2022-10-05T09:28:20.807Z,3.15
2022-10-05T09:31:07.563Z,2.70
2022-10-05T09:33:34.897Z,2.70
2022-10-05T09:36:27.270Z,2.60
2022-10-05T09:39:39.714Z,2.70
2022-10-05T09:42:15.660Z,2.35
2022-10-05T09:44:54.926Z,2.60
2022-10-05T09:47:45.274Z,2.40
2022-10-05T09:50:38.598Z,2.53
2022-10-05T09:53:08.692Z,2.50
2022-10-05T09:55:53.407Z,2.58
2022-10-05T09:58:58.976Z,2.40
2022-10-05T10:01:47.341Z,3.00
2022-10-05T10:04:24.978Z,2.60
2022-10-05T10:06:59.912Z,2.03
2022-10-05T10:09:39.665Z,3.22
2022-10-05T10:12:49.172Z,2.15
2022-10-05T10:15:25.611Z,2.33
2022-10-05T10:18:24.166Z,1.90
2022-10-05T10:21:30.142Z,2.50
2022-10-05T10:24:14.850Z,2.42
2022-10-05T10:27:16.699Z,1.95
2022-10-05T10:29:43.920Z,2.30
2022-10-05T10:32:20.007Z,2.15
2022-10-05T10:35:05.106Z,2.15
2022-10-05T10:38:08.957Z,2.85
2022-10-05T10:40:58.493Z,2.65
2022-10-05T10:44:11.277Z,2.30
2022-10-05T10:47:05.981Z,2.38
2022-10-05T10:50:10.503Z,2.67
2022-10-05T10:52:37.714Z,2.22
2022-10-05T10:55:16.573Z,2.22
2022-10-05T10:58:15.930Z,2.30
2022-10-05T11:01:12.774Z,2.13
2022-10-05T11:03:45.288Z,2.22
2022-10-05T11:06:37.747Z,2.30
2022-10-05T11:09:40.608Z,2.35
2022-10-05T11:12:49.820Z,2.75
2022-10-05T11:15:32.819Z,2.13
2022-10-05T11:18:04.108Z,2.20
2022-10-05T11:20:40.248Z,2.30
2022-10-05T11:23:38.751Z,2.10
2022-10-05T11:26:15.002Z,2.55
2022-10-05T11:29:08.470Z,2.00
2022-10-05T11:32:06.891Z,1.80
2022-10-05T11:34:43.895Z,2.28
2022-10-05T11:37:22.565Z,2.30
2022-10-05T11:40:11.574Z,2.08
2022-10-05T11:42:56.719Z,2.40
2022-10-05T11:45:30.378Z,2.13
2022-10-05T11:48:07.391Z,2.00
2022-10-05T11:51:07.090Z,2.10
2022-10-05T11:54:01.356Z,1.85
2022-10-05T11:56:56.938Z,2.17
2022-10-05T11:59:57.197Z,1.80
2022-10-05T12:02:43.723Z,1.67
2022-10-05T12:05:21.431Z,1.88
2022-10-05T12:08:01.032Z,1.77
2022-10-05T12:10:33.022Z,2.45
2022-10-05T12:13:13.674Z,1.73
2022-10-05T12:15:56.369Z,1.77
2022-10-05T12:18:34.427Z,1.90
2022-10-05T12:21:11.746Z,1.92
2022-10-05T12:23:54.023Z,1.63
2022-10-05T12:26:47.510Z,1.90
2022-10-05T12:29:34.302Z,2.03
2022-10-05T12:32:11.814Z,1.73
2022-10-05T12:35:04.924Z,1.88
2022-10-05T12:37:34.466Z,1.55
2022-10-05T12:40:28.178Z,1.73
2022-10-05T12:43:05.375Z,1.40
2022-10-05T12:45:59.270Z,1.45
2022-10-05T12:48:35.793Z,1.60
2022-10-05T12:51:44.460Z,1.55
2022-10-05T12:54:41.309Z,1.80
2022-10-05T12:57:36.766Z,1.50
2022-10-05T13:00:07.982Z,1.80
2022-10-05T13:03:09.980Z,1.92
2022-10-05T13:05:58.962Z,1.98
2022-10-05T13:08:38.498Z,1.77
2022-10-05T13:11:26.917Z,1.80
2022-10-05T13:14:08.386Z,1.70
2022-10-05T13:16:42.711Z,1.80
2022-10-05T13:19:16.128Z,1.70
2022-10-05T13:21:46.618Z,1.73
2022-10-05T13:24:22.811Z,1.60
2022-10-05T13:27:04.638Z,2.25
2022-10-05T13:30:03.206Z,3.08
2022-10-05T13:32:49.247Z,1.73
2022-10-05T13:35:37.311Z,2.50
2022-10-05T13:38:31.226Z,2.10
2022-10-05T13:41:18.106Z,1.70
2022-10-05T13:43:48.735Z,1.73
2022-10-05T13:46:22.297Z,1.45
2022-10-05T13:48:55.445Z,2.08
2022-10-05T13:51:28.993Z,2.00
2022-10-05T13:54:44.745Z,2.30
2022-10-05T13:57:18.684Z,2.10
2022-10-05T14:00:06.506Z,2.30
2022-10-05T14:02:42.422Z,1.85
2022-10-05T14:05:27.568Z,1.90
2022-10-05T14:07:56.671Z,2.10
2022-10-05T14:10:41.991Z,2.08
2022-10-05T14:13:34.630Z,2.03
2022-10-05T14:16:04.926Z,2.20
2022-10-05T14:18:36.438Z,2.20
2022-10-05T14:21:12.645Z,2.50
2022-10-05T14:23:40.295Z,2.83
2022-10-05T14:26:34.857Z,3.20
2022-10-05T14:29:17.115Z,3.38
2022-10-05T14:32:01.909Z,3.63
2022-10-05T14:34:49.844Z,3.03
2022-10-05T14:37:21.528Z,3.10
2022-10-05T14:39:52.098Z,3.13
2022-10-05T14:42:22.741Z,2.70
2022-10-05T14:45:25.219Z,2.50
2022-10-05T14:48:10.492Z,2.40
2022-10-05T14:50:56.496Z,2.22
2022-10-05T14:53:38.147Z,2.10
2022-10-05T14:56:27.320Z,2.10
2022-10-05T14:59:10.040Z,2.42
2022-10-05T15:01:55.125Z,2.45
2022-10-05T15:04:52.856Z,2.08
2022-10-05T15:07:29.057Z,2.55
2022-10-05T15:10:30.422Z,2.20
2022-10-05T15:13:18.880Z,2.50
2022-10-05T15:16:00.010Z,2.90
2022-10-05T15:18:40.142Z,2.45
2022-10-05T15:24:02.542Z,1.90
2022-10-05T15:26:53.260Z,1.70
2022-10-05T15:29:42.327Z,1.90
2022-10-05T15:32:34.230Z,1.63
2022-10-05T15:35:23.217Z,1.50
2022-10-05T15:37:55.262Z,1.70
2022-10-05T15:40:39.904Z,1.80
2022-10-05T15:43:16.219Z,1.90
2022-10-05T15:46:01.250Z,1.73
2022-10-05T15:49:02.591Z,1.70
2022-10-05T15:52:00.488Z,2.10
2022-10-05T15:54:46.745Z,1.90
2022-10-05T15:57:53.108Z,2.00
2022-10-05T16:00:22.323Z,2.00
2022-10-05T16:03:19.431Z,2.25
2022-10-05T16:06:18.649Z,2.10
2022-10-05T16:09:05.308Z,2.20
2022-10-05T16:11:59.893Z,2.40
2022-10-05T16:14:47.430Z,2.28
2022-10-05T16:17:36.808Z,2.00
2022-10-05T16:20:05.894Z,2.08
2022-10-05T16:23:02.232Z,2.70
2022-10-05T16:25:40.178Z,2.35
2022-10-05T16:28:12.291Z,2.60
2022-10-05T16:31:01.398Z,2.25
2022-10-05T16:33:47.059Z,2.13
2022-10-05T16:36:36.580Z,2.05
2022-10-05T16:39:14.895Z,2.10
2022-10-05T16:42:02.814Z,2.20
2022-10-05T16:45:11.082Z,2.03
2022-10-05T16:47:46.850Z,2.22
2022-10-05T16:50:20.081Z,2.30
2022-10-05T16:53:09.646Z,2.88
2022-10-05T16:55:45.458Z,2.27
2022-10-05T16:58:35.603Z,2.15
2022-10-05T17:01:29.298Z,2.53
2022-10-05T17:04:32.014Z,2.50
2022-10-05T17:07:21.023Z,2.40
2022-10-05T17:10:29.719Z,2.60
2022-10-05T17:13:37.573Z,5.90
2022-10-05T17:16:20.101Z,4.57
2022-10-05T17:19:23.350Z,2.38
2022-10-05T17:22:32.450Z,3.80
2022-10-05T17:25:28.793Z,2.60
2022-10-05T17:28:17.731Z,2.50
2022-10-05T17:31:03.873Z,2.50
2022-10-05T17:33:32.906Z,2.45
2022-10-05T17:36:03.528Z,2.42
2022-10-05T17:38:30.832Z,2.50
2022-10-05T17:41:04.372Z,2.08
2022-10-05T17:43:33.977Z,3.80
2022-10-05T17:46:03.651Z,2.58
2022-10-05T17:49:03.476Z,3.00
2022-10-05T17:51:49.066Z,3.92
2022-10-05T17:54:41.130Z,7.82
2022-10-05T17:57:08.334Z,5.38
2022-10-05T17:59:50.312Z,2.80
2022-10-05T18:02:23.405Z,2.67
2022-10-05T18:05:12.849Z,2.83
2022-10-05T18:07:41.451Z,2.33
2022-10-05T18:10:17.617Z,2.97
2022-10-05T18:13:20.537Z,3.83
2022-10-05T18:15:51.510Z,2.85
2022-10-05T18:18:43.564Z,2.42
2022-10-05T18:21:18.814Z,3.92
2022-10-05T18:23:52.072Z,2.78
2022-10-05T18:26:41.743Z,2.28
2022-10-05T18:29:15.091Z,2.67
2022-10-05T18:32:00.469Z,2.65
2022-10-05T18:34:56.196Z,2.70
2022-10-05T18:37:47.955Z,2.70
2022-10-05T18:40:35.419Z,2.60
2022-10-05T18:43:30.819Z,3.00
2022-10-05T18:46:14.068Z,2.40
2022-10-05T18:49:09.087Z,2.50
2022-10-05T18:51:51.536Z,2.83
2022-10-05T18:54:51.450Z,2.80
2022-10-05T18:57:40.744Z,3.42
2022-10-05T19:00:23.156Z,2.80
2022-10-05T19:02:58.484Z,2.58
2022-10-05T19:06:01.397Z,2.65
2022-10-05T19:08:56.192Z,2.80
2022-10-05T19:11:37.721Z,2.75
2022-10-05T19:14:17.136Z,3.17
2022-10-05T19:16:51.356Z,3.17
2022-10-05T19:19:33.127Z,3.25
2022-10-05T19:22:10.727Z,3.50
2022-10-05T19:25:07.310Z,3.30
2022-10-05T19:27:40.154Z,3.08
2022-10-05T19:30:46.251Z,3.65
2022-10-05T19:33:52.064Z,3.08
2022-10-05T19:36:50.409Z,2.95
2022-10-05T19:39:41.195Z,2.70
2022-10-05T19:42:27.096Z,2.83
2022-10-05T19:45:11.304Z,3.35
2022-10-05T19:47:41.476Z,3.10
2022-10-05T19:50:29.353Z,2.70
2022-10-05T19:53:14.797Z,2.70
2022-10-05T19:55:44.593Z,7.30
2022-10-05T19:58:19.852Z,5.22
2022-10-05T20:01:02.189Z,3.30
2022-10-05T20:03:31.975Z,4.63
2022-10-05T20:06:01.928Z,3.17
2022-10-05T20:08:41.996Z,3.15
2022-10-05T20:11:21.363Z,3.28
2022-10-05T20:14:13.945Z,3.17
2022-10-05T20:17:00.198Z,2.90
2022-10-05T20:19:56.263Z,2.70
2022-10-05T20:22:41.417Z,2.97
2022-10-05T20:25:30.115Z,2.92
2022-10-05T20:27:57.994Z,4.20
2022-10-05T20:30:31.116Z,4.63
2022-10-05T20:33:01.880Z,3.35
2022-10-05T20:35:33.508Z,3.03
2022-10-05T20:38:01.009Z,3.20
2022-10-05T20:40:29.942Z,2.80
2022-10-05T20:42:58.562Z,2.97
2022-10-05T20:45:26.102Z,2.95
2022-10-05T20:47:54.326Z,3.00
2022-10-05T20:50:22.377Z,3.05
2022-10-05T20:52:49.623Z,3.20
2022-10-05T20:55:17.257Z,3.03
2022-10-05T20:57:46.281Z,3.10
2022-10-05T21:00:14.420Z,2.90
2022-10-05T21:02:42.052Z,3.00
2022-10-05T21:05:09.910Z,3.05
2022-10-05T21:08:08.680Z,3.10
2022-10-05T21:10:38.139Z,3.10
2022-10-05T21:13:06.266Z,2.95
2022-10-05T21:15:35.289Z,2.92
2022-10-05T21:20:41.553Z,3.28
2022-10-05T21:23:08.914Z,2.80
2022-10-05T21:25:36.399Z,3.20
2022-10-05T21:28:04.769Z,2.90
2022-10-05T21:30:32.110Z,2.90
2022-10-05T21:32:59.390Z,2.78
2022-10-05T21:35:26.626Z,3.13
2022-10-05T21:37:53.993Z,3.55
2022-10-05T21:40:21.184Z,2.72
2022-10-05T21:42:48.522Z,3.17
2022-10-05T21:45:15.828Z,2.70
2022-10-05T21:47:43.212Z,3.20
2022-10-05T21:50:10.775Z,2.60
2022-10-05T21:52:38.247Z,2.75
2022-10-05T21:55:07.327Z,2.67
2022-10-05T21:57:36.329Z,2.92
2022-10-05T22:00:08.851Z,3.00
2022-10-05T22:02:37.235Z,2.85
2022-10-05T22:05:05.804Z,2.60
2022-10-05T22:07:33.144Z,2.85
2022-10-05T22:10:02.081Z,2.65
2022-10-05T22:12:29.299Z,2.65
2022-10-05T22:14:56.579Z,2.72
2022-10-05T22:17:28.199Z,2.95
2022-10-05T22:19:56.387Z,2.80
2022-10-05T22:22:24.206Z,2.63
2022-10-05T22:24:52.780Z,3.03
2022-10-05T22:27:23.187Z,2.95
2022-10-05T22:32:18.605Z,2.97
2022-10-05T22:34:45.948Z,3.45
2022-10-05T22:37:13.917Z,3.08
2022-10-05T22:39:41.519Z,3.53
2022-10-05T22:42:09.796Z,2.97
2022-10-05T22:44:37.444Z,2.90
2022-10-05T22:47:05.549Z,3.28
2022-10-05T22:49:33.170Z,2.75
2022-10-05T22:52:00.629Z,4.20
2022-10-05T22:54:30.517Z,3.30
2022-10-05T22:56:59.865Z,2.97
2022-10-05T22:59:27.091Z,2.85
2022-10-05T23:01:54.490Z,3.30
2022-10-05T23:04:21.854Z,2.95
2022-10-05T23:06:49.092Z,2.97
2022-10-05T23:09:16.545Z,3.00
2022-10-05T23:11:43.884Z,3.05
2022-10-05T23:14:11.189Z,2.83
2022-10-05T23:16:38.518Z,2.90
2022-10-05T23:19:06.485Z,2.83
2022-10-05T23:21:34.596Z,2.78
2022-10-05T23:24:02.279Z,3.38
2022-10-05T23:26:31.374Z,3.45
2022-10-05T23:28:59.026Z,3.47
2022-10-05T23:31:29.780Z,3.67
2022-10-05T23:33:57.288Z,3.63
2022-10-05T23:36:27.062Z,4.35
2022-10-05T23:38:54.896Z,3.35
2022-10-05T23:41:22.154Z,2.90
2022-10-05T23:43:49.897Z,2.78
2022-10-05T23:46:18.148Z,2.88
2022-10-05T23:48:45.439Z,3.28
2022-10-05T23:51:13.728Z,3.05
2022-10-05T23:53:40.977Z,3.33
2022-10-05T23:56:08.380Z,3.50
2022-10-05T23:58:36.109Z,2.83
